Time;durP1;ratioP1;P1;durP2;ratioP2;P2;SDS_P1;SDS_P2;PMS_P1;PMS_P2;Temp;Humidity;BMP_temperature;BMP_pressure;BME280_temperature;BME280_humidity;BME280_pressure;Samples;Min_cycle;Max_cycle;Signal;HPM_P1;HPM_P2
2021/08/21 00:01:50;;;;;;;7.78;4.93;;;20.00;84.70;;;;;;5097784;28;20063;-58
2021/08/21 00:04:16;;;;;;;5.97;4.60;;;20.10;84.00;;;;;;5098172;28;20032;-58
2021/08/21 00:06:43;;;;;;;6.97;5.03;;;20.00;82.60;;;;;;5099485;28;20103;-58
2021/08/21 00:09:09;;;;;;;7.20;5.80;;;19.70;83.30;;;;;;5098479;28;20236;-58
2021/08/21 00:11:35;;;;;;;8.10;5.82;;;19.50;83.60;;;;;;5097935;28;20501;-58
2021/08/21 00:14:01;;;;;;;9.63;5.95;;;19.20;84.00;;;;;;5099782;28;20032;-58
2021/08/21 00:16:27;;;;;;;8.23;5.97;;;18.80;84.90;;;;;;5099734;28;21027;-59
2021/08/21 00:18:54;;;;;;;8.63;6.80;;;18.50;86.00;;;;;;5086628;28;20494;-58
2021/08/21 00:21:20;;;;;;;8.30;6.38;;;18.20;87.10;;;;;;5097530;28;20124;-58
2021/08/21 00:23:46;;;;;;;8.05;5.47;;;18.00;88.20;;;;;;5098270;28;20551;-58
2021/08/21 00:26:12;;;;;;;8.20;6.45;;;17.90;89.70;;;;;;5098414;28;20047;-58
2021/08/21 00:28:37;;;;;;;10.85;7.57;;;17.90;89.60;;;;;;5097977;28;20031;-58
2021/08/21 00:31:04;;;;;;;11.20;7.57;;;17.90;89.70;;;;;;5080992;28;20384;-58
2021/08/21 00:33:30;;;;;;;12.23;8.85;;;17.80;90.00;;;;;;5098652;28;20043;-58
2021/08/21 00:35:56;;;;;;;13.65;9.57;;;17.70;90.10;;;;;;5098263;28;20027;-58
2021/08/21 00:38:22;;;;;;;12.55;9.32;;;17.60;90.30;;;;;;5097681;28;20059;-58
2021/08/21 00:40:48;;;;;;;14.55;9.88;;;17.60;90.50;;;;;;5098196;28;20039;-58
2021/08/21 00:43:15;;;;;;;16.42;10.63;;;17.60;90.70;;;;;;5097402;28;20110;-58
2021/08/21 00:45:41;;;;;;;14.18;10.45;;;17.50;90.90;;;;;;5098643;28;20044;-58
2021/08/21 00:48:07;;;;;;;13.07;10.52;;;17.40;91.00;;;;;;5098558;28;20042;-58
2021/08/21 00:50:33;;;;;;;13.18;9.40;;;17.30;91.10;;;;;;5079217;28;20407;-58
2021/08/21 00:52:59;;;;;;;13.50;11.02;;;17.30;91.20;;;;;;5098419;28;20039;-58
2021/08/21 00:55:25;;;;;;;18.48;12.02;;;17.30;91.30;;;;;;5098157;28;20051;-58
2021/08/21 00:57:51;;;;;;;12.73;10.73;;;17.30;91.40;;;;;;5097327;28;20851;-58
2021/08/21 01:00:17;;;;;;;11.98;8.63;;;17.30;91.50;;;;;;5097861;28;20040;-58
2021/08/21 01:02:44;;;;;;;14.52;10.60;;;17.30;91.70;;;;;;5096951;28;20069;-58
2021/08/21 01:05:15;;;;;;;14.35;10.93;;;17.30;91.60;;;;;;5098042;28;20050;-58
2021/08/21 01:07:41;;;;;;;14.88;11.13;;;17.30;91.40;;;;;;5096981;28;20051;-58
2021/08/21 01:10:09;;;;;;;16.58;12.07;;;17.20;91.50;;;;;;5098646;28;20028;-58
2021/08/21 01:12:38;;;;;;;16.45;11.57;;;17.20;91.60;;;;;;5097874;28;20056;-58
2021/08/21 01:15:05;;;;;;;13.77;11.35;;;17.20;91.70;;;;;;5098174;28;20408;-58
2021/08/21 01:17:32;;;;;;;16.92;12.68;;;17.10;91.80;;;;;;5097402;28;20087;-58
2021/08/21 01:19:58;;;;;;;16.13;11.48;;;17.10;91.90;;;;;;5096582;28;20114;-58
2021/08/21 01:22:27;;;;;;;15.82;11.45;;;17.00;91.90;;;;;;5096836;28;20036;-58
2021/08/21 01:24:55;;;;;;;18.20;11.85;;;17.00;92.00;;;;;;5098204;28;20043;-58
2021/08/21 01:27:28;;;;;;;17.17;11.80;;;17.00;92.00;;;;;;5079202;28;20421;-58
2021/08/21 01:29:54;;;;;;;17.98;12.57;;;17.00;92.10;;;;;;5096113;28;20385;-58
2021/08/21 01:32:21;;;;;;;16.75;11.50;;;16.90;92.10;;;;;;5099379;28;20043;-58
2021/08/21 01:34:49;;;;;;;17.27;13.07;;;16.90;92.10;;;;;;5095834;28;20039;-58
2021/08/21 01:37:19;;;;;;;18.13;12.27;;;16.90;92.20;;;;;;5097199;28;20039;-59
2021/08/21 01:39:47;;;;;;;14.48;11.85;;;16.90;92.20;;;;;;5097950;28;20036;-59
2021/08/21 01:42:13;;;;;;;17.52;12.90;;;16.90;92.50;;;;;;5098065;28;20498;-59
2021/08/21 01:44:39;;;;;;;16.33;11.98;;;16.90;92.30;;;;;;5096387;28;20035;-59
2021/08/21 01:47:05;;;;;;;21.95;13.20;;;16.90;92.40;;;;;;5098484;28;20216;-59
2021/08/21 01:49:30;;;;;;;18.13;12.55;;;16.90;92.40;;;;;;5098363;28;20398;-59
2021/08/21 01:52:03;;;;;;;16.17;12.57;;;16.90;92.40;;;;;;5096938;28;20097;-59
2021/08/21 01:54:29;;;;;;;20.37;13.87;;;16.90;92.40;;;;;;5096524;28;20089;-59
2021/08/21 01:56:57;;;;;;;17.73;13.65;;;16.90;92.30;;;;;;5078479;28;20558;-58
2021/08/21 01:59:29;;;;;;;20.85;13.38;;;16.90;92.40;;;;;;5097209;28;20141;-59
2021/08/21 02:01:56;;;;;;;20.40;13.75;;;16.90;92.40;;;;;;5096356;28;20404;-59
2021/08/21 02:04:23;;;;;;;22.23;14.98;;;16.80;92.40;;;;;;5079613;28;20134;-59
2021/08/21 02:06:50;;;;;;;20.40;13.65;;;16.80;92.40;;;;;;5100665;28;20483;-58
2021/08/21 02:09:18;;;;;;;20.98;13.70;;;16.80;92.40;;;;;;5101375;28;20040;-59
2021/08/21 02:11:45;;;;;;;17.35;12.45;;;16.70;92.40;;;;;;5100829;28;20040;-59
2021/08/21 02:14:12;;;;;;;19.50;14.00;;;16.80;92.60;;;;;;5101077;28;22226;-59
2021/08/21 02:16:37;;;;;;;23.42;15.55;;;16.80;92.60;;;;;;5101612;28;20047;-59
2021/08/21 02:19:03;;;;;;;20.85;15.13;;;16.80;92.50;;;;;;5101225;28;20422;-59
2021/08/21 02:21:29;;;;;;;21.38;13.90;;;16.80;92.50;;;;;;5099483;28;20036;-58
2021/08/21 02:23:58;;;;;;;17.15;12.30;;;16.80;92.50;;;;;;5101244;28;20035;-61
2021/08/21 02:26:25;;;;;;;18.02;13.60;;;16.80;92.70;;;;;;5101969;28;20043;-59
2021/08/21 02:28:52;;;;;;;21.77;15.60;;;16.80;92.60;;;;;;5099812;28;20058;-58
2021/08/21 02:31:18;;;;;;;22.05;15.13;;;16.80;92.60;;;;;;5099811;28;20043;-58
2021/08/21 02:33:43;;;;;;;20.05;14.80;;;16.80;92.50;;;;;;5099447;28;20040;-58
2021/08/21 02:36:09;;;;;;;15.10;10.40;;;16.80;92.50;;;;;;5101059;28;20938;-59
2021/08/21 02:38:35;;;;;;;21.55;15.45;;;16.80;93.00;;;;;;5100197;28;20065;-58
2021/08/21 02:41:01;;;;;;;17.35;14.63;;;16.80;92.90;;;;;;5101001;28;20032;-58
2021/08/21 02:43:27;;;;;;;18.50;14.27;;;16.80;92.80;;;;;;5100352;28;20131;-59
2021/08/21 02:45:52;;;;;;;18.77;13.55;;;16.80;92.70;;;;;;5101257;28;20080;-58
2021/08/21 02:48:19;;;;;;;18.95;14.77;;;16.70;92.80;;;;;;5099758;28;20111;-58
2021/08/21 02:50:44;;;;;;;18.30;14.25;;;16.70;92.70;;;;;;5099776;28;20395;-58
2021/08/21 02:53:10;;;;;;;20.17;14.40;;;16.70;92.70;;;;;;5100452;28;20047;-58
2021/08/21 02:55:38;;;;;;;22.40;15.25;;;16.70;92.60;;;;;;5100584;28;20083;-59
2021/08/21 02:58:04;;;;;;;21.05;14.57;;;16.70;92.60;;;;;;5099005;28;20372;-58
2021/08/21 03:00:30;;;;;;;20.90;14.65;;;16.70;92.60;;;;;;5100344;28;20164;-58
2021/08/21 03:02:56;;;;;;;22.67;14.85;;;16.60;92.50;;;;;;5102038;28;20142;-58
2021/08/21 03:05:22;;;;;;;24.02;15.75;;;16.60;92.60;;;;;;5080649;28;20036;-58
2021/08/21 03:07:48;;;;;;;19.73;14.57;;;16.50;92.70;;;;;;5099488;28;20043;-58
2021/08/21 03:10:13;;;;;;;22.83;15.80;;;16.50;92.70;;;;;;5081657;28;20030;-58
2021/08/21 03:12:39;;;;;;;21.95;15.60;;;16.50;92.80;;;;;;5099931;28;20183;-58
2021/08/21 03:15:05;;;;;;;18.10;15.35;;;16.50;92.80;;;;;;5100300;28;20483;-58
2021/08/21 03:17:31;;;;;;;21.48;14.57;;;16.50;92.80;;;;;;5099282;28;20032;-57
2021/08/21 03:19:57;;;;;;;19.88;15.40;;;16.50;92.90;;;;;;5100994;28;20027;-58
2021/08/21 03:22:23;;;;;;;20.63;15.63;;;16.50;92.90;;;;;;5099387;28;20168;-58
2021/08/21 03:24:49;;;;;;;22.70;14.85;;;16.50;93.10;;;;;;5098767;28;20110;-58
2021/08/21 03:27:15;;;;;;;18.75;14.05;;;16.50;92.90;;;;;;5099621;28;20126;-58
2021/08/21 03:29:40;;;;;;;17.83;14.57;;;16.50;92.90;;;;;;5099175;28;20048;-58
2021/08/21 03:32:06;;;;;;;25.38;17.15;;;16.50;92.90;;;;;;5099056;28;20475;-58
2021/08/21 03:34:34;;;;;;;25.38;14.25;;;16.50;92.80;;;;;;5098012;28;20039;-58
2021/08/21 03:37:00;;;;;;;19.55;15.10;;;16.50;93.10;;;;;;5099814;28;20476;-58
2021/08/21 03:39:25;;;;;;;19.52;14.65;;;16.50;92.90;;;;;;5100695;28;20073;-58
2021/08/21 03:41:51;;;;;;;20.73;14.25;;;16.50;92.80;;;;;;5096954;28;20040;-58
2021/08/21 03:44:17;;;;;;;19.58;13.40;;;16.50;92.80;;;;;;5098214;28;20066;-58
2021/08/21 03:46:42;;;;;;;19.98;13.68;;;16.50;92.80;;;;;;5098423;28;20043;-58
2021/08/21 03:49:08;;;;;;;20.00;14.90;;;16.50;92.80;;;;;;5100563;28;20060;-58
2021/08/21 03:51:34;;;;;;;17.08;13.52;;;16.40;92.70;;;;;;5098486;28;20188;-58
2021/08/21 03:54:00;;;;;;;24.48;13.82;;;16.40;92.70;;;;;;5098773;28;20149;-58
2021/08/21 03:56:26;;;;;;;16.67;13.30;;;16.40;92.70;;;;;;5099965;28;20043;-58
2021/08/21 03:58:51;;;;;;;18.52;13.90;;;16.50;92.80;;;;;;5098543;28;20039;-58
2021/08/21 04:01:17;;;;;;;17.60;13.88;;;16.40;92.60;;;;;;5097861;28;20126;-58
2021/08/21 04:03:43;;;;;;;16.98;12.68;;;16.40;92.60;;;;;;5096735;28;20050;-58
2021/08/21 04:06:10;;;;;;;17.60;13.07;;;16.40;92.70;;;;;;5099183;28;20116;-59
2021/08/21 04:08:36;;;;;;;19.30;14.40;;;16.40;92.70;;;;;;5098644;28;20447;-59
2021/08/21 04:11:02;;;;;;;16.40;12.95;;;16.40;92.70;;;;;;5098190;28;20034;-58
2021/08/21 04:13:28;;;;;;;23.00;14.00;;;16.40;92.70;;;;;;5099458;28;20061;-58
2021/08/21 04:15:55;;;;;;;21.00;14.98;;;16.40;92.70;;;;;;5100075;28;20506;-58
2021/08/21 04:18:21;;;;;;;18.20;13.60;;;16.40;92.80;;;;;;5097762;28;20162;-58
2021/08/21 04:20:47;;;;;;;17.27;13.55;;;16.40;92.80;;;;;;5097349;28;21121;-59
2021/08/21 04:23:13;;;;;;;16.55;13.65;;;16.40;92.80;;;;;;5079309;28;20039;-58
2021/08/21 04:25:39;;;;;;;17.20;13.65;;;16.40;92.90;;;;;;5098417;28;20040;-59
2021/08/21 04:28:05;;;;;;;20.33;13.20;;;16.40;93.00;;;;;;5097814;28;22341;-58
2021/08/21 04:30:31;;;;;;;20.50;14.55;;;16.40;92.90;;;;;;5097450;28;20032;-59
2021/08/21 04:32:57;;;;;;;17.45;13.65;;;16.30;92.90;;;;;;5098599;28;20042;-58
2021/08/21 04:35:22;;;;;;;16.23;12.93;;;16.30;92.90;;;;;;5097788;28;20398;-58
2021/08/21 04:37:48;;;;;;;17.95;13.80;;;16.40;92.90;;;;;;5097106;28;20043;-59
2021/08/21 04:40:16;;;;;;;19.98;13.88;;;16.40;92.80;;;;;;5062171;28;20035;-58
2021/08/21 04:42:42;;;;;;;16.17;11.27;;;16.40;92.70;;;;;;5098183;28;20044;-59
2021/08/21 04:45:09;;;;;;;18.98;13.85;;;16.40;92.80;;;;;;5096836;28;20524;-58
2021/08/21 04:47:35;;;;;;;18.67;14.10;;;16.40;92.90;;;;;;5096367;28;20043;-59
2021/08/21 04:50:03;;;;;;;19.42;13.20;;;16.40;93.00;;;;;;5098097;28;20117;-59
2021/08/21 04:52:29;;;;;;;24.73;14.73;;;16.40;92.80;;;;;;5099040;28;20534;-58
2021/08/21 04:54:56;;;;;;;16.40;13.13;;;16.40;92.80;;;;;;5097033;28;20859;-59
2021/08/21 04:57:21;;;;;;;20.55;14.60;;;16.40;92.80;;;;;;5097162;28;20040;-58
2021/08/21 04:59:47;;;;;;;15.50;11.93;;;16.50;92.70;;;;;;5098674;28;20044;-58
2021/08/21 05:02:13;;;;;;;22.08;12.43;;;16.50;92.90;;;;;;5097881;28;20688;-58
2021/08/21 05:04:39;;;;;;;20.63;14.45;;;16.50;92.80;;;;;;5095828;28;20067;-58
2021/08/21 05:07:05;;;;;;;7.05;5.18;;;16.50;92.60;;;;;;5098145;28;20537;-58
2021/08/21 05:09:31;;;;;;;5.93;4.43;;;16.50;93.00;;;;;;5098477;28;20467;-59
2021/08/21 05:11:56;;;;;;;4.25;3.63;;;16.70;93.60;;;;;;5097369;28;20035;-59
2021/08/21 05:14:22;;;;;;;18.98;12.88;;;17.10;93.70;;;;;;5078859;28;20407;-59
2021/08/21 05:16:48;;;;;;;22.38;13.93;;;17.40;92.80;;;;;;5097786;28;20119;-58
2021/08/21 05:19:50;;;;;;;19.60;13.75;;;17.40;92.10;;;;;;5096530;28;20036;-58
2021/08/21 05:22:27;;;;;;;19.10;14.75;;;17.30;91.70;;;;;;5095806;28;20614;-58
2021/08/21 05:24:54;;;;;;;20.70;13.68;;;17.00;91.80;;;;;;5097824;28;20039;-58
2021/08/21 05:27:22;;;;;;;19.25;13.32;;;16.90;92.00;;;;;;5098640;28;20047;-58
2021/08/21 05:29:49;;;;;;;18.83;14.50;;;16.90;92.00;;;;;;5098254;28;20471;-58
2021/08/21 05:32:15;;;;;;;20.70;13.45;;;16.80;92.00;;;;;;5097572;28;20055;-60
2021/08/21 05:34:41;;;;;;;19.65;15.13;;;16.70;92.10;;;;;;5097191;28;20038;-61
2021/08/21 05:37:07;;;;;;;20.30;14.60;;;16.70;92.20;;;;;;5096807;28;20035;-59
2021/08/21 05:39:33;;;;;;;20.15;14.15;;;16.60;92.30;;;;;;5097373;28;20558;-59
2021/08/21 05:41:59;;;;;;;17.95;13.95;;;16.60;92.30;;;;;;5099351;28;20059;-59
2021/08/21 05:44:26;;;;;;;19.15;13.88;;;16.60;92.40;;;;;;5101354;28;20126;-59
2021/08/21 05:46:52;;;;;;;19.55;14.50;;;16.50;92.40;;;;;;5102659;28;20383;-60
2021/08/21 05:49:17;;;;;;;18.63;13.88;;;16.50;92.50;;;;;;5098195;28;20032;-59
2021/08/21 05:51:44;;;;;;;22.00;14.73;;;16.50;92.50;;;;;;5100129;28;20062;-60
2021/08/21 05:54:11;;;;;;;20.33;15.40;;;16.50;92.60;;;;;;5101308;28;20053;-59
2021/08/21 05:56:38;;;;;;;15.48;9.85;;;16.50;92.70;;;;;;5068911;28;20032;-59
2021/08/21 05:59:03;;;;;;;19.42;14.35;;;16.50;93.10;;;;;;5101328;28;20036;-65
2021/08/21 06:01:29;;;;;;;21.30;16.13;;;16.80;93.30;;;;;;5100291;28;20048;-58
2021/08/21 06:03:56;;;;;;;23.85;16.15;;;16.90;92.80;;;;;;5094239;28;20058;-61
2021/08/21 06:06:24;;;;;;;20.35;15.55;;;16.90;92.60;;;;;;5098851;28;20040;-58
2021/08/21 06:08:49;;;;;;;22.73;16.42;;;16.90;92.60;;;;;;5100847;28;20038;-58
2021/08/21 06:11:15;;;;;;;28.20;17.35;;;16.80;92.40;;;;;;5098796;28;20431;-58
2021/08/21 06:13:41;;;;;;;24.88;18.15;;;16.80;92.40;;;;;;5101068;28;20044;-60
2021/08/21 06:16:07;;;;;;;23.48;17.20;;;16.80;92.40;;;;;;5100919;28;20088;-60
2021/08/21 06:18:33;;;;;;;23.77;18.23;;;16.80;92.40;;;;;;5100005;28;20044;-60
2021/08/21 06:20:59;;;;;;;21.40;16.77;;;16.70;92.60;;;;;;5099586;28;20044;-60
2021/08/21 06:23:25;;;;;;;27.40;18.40;;;16.70;92.60;;;;;;5100611;28;20070;-60
2021/08/21 06:25:51;;;;;;;22.63;17.83;;;16.70;92.70;;;;;;5099475;28;20028;-60
2021/08/21 06:28:17;;;;;;;23.55;18.25;;;16.80;92.80;;;;;;5102058;28;20039;-60
2021/08/21 06:30:43;;;;;;;25.40;17.60;;;16.80;92.70;;;;;;5100184;28;20729;-60
2021/08/21 06:33:08;;;;;;;23.40;18.50;;;16.90;92.90;;;;;;5100209;28;20036;-60
2021/08/21 06:35:34;;;;;;;26.65;19.50;;;17.00;92.80;;;;;;5099601;28;20392;-60
2021/08/21 06:38:00;;;;;;;25.15;18.60;;;17.00;92.60;;;;;;5099084;28;20032;-59
2021/08/21 06:40:26;;;;;;;23.83;18.10;;;17.00;92.50;;;;;;5098695;28;20047;-59
2021/08/21 06:42:52;;;;;;;25.60;19.23;;;17.00;92.50;;;;;;5099068;28;20042;-59
2021/08/21 06:45:17;;;;;;;24.33;18.42;;;17.00;92.50;;;;;;5099774;28;20051;-59
2021/08/21 06:47:43;;;;;;;28.67;20.40;;;17.00;92.60;;;;;;5081191;28;20047;-61
2021/08/21 06:50:10;;;;;;;23.20;18.05;;;17.00;92.60;;;;;;5100155;28;20143;-61
2021/08/21 06:52:35;;;;;;;26.17;19.98;;;17.00;92.80;;;;;;5097558;28;20043;-61
2021/08/21 06:55:01;;;;;;;23.67;18.65;;;17.10;92.70;;;;;;5099225;28;20039;-61
2021/08/21 06:57:28;;;;;;;26.42;20.23;;;17.20;92.70;;;;;;5080255;28;20413;-61
2021/08/21 06:59:57;;;;;;;24.83;19.27;;;17.30;92.60;;;;;;5097918;28;20036;-61
2021/08/21 07:02:26;;;;;;;29.13;20.05;;;17.40;92.50;;;;;;5098666;28;20047;-61
2021/08/21 07:04:52;;;;;;;26.23;20.35;;;17.60;92.60;;;;;;5100391;28;20482;-61
2021/08/21 07:07:18;;;;;;;27.15;20.48;;;17.70;92.10;;;;;;5098169;28;20036;-61
2021/08/21 07:09:44;;;;;;;25.35;22.05;;;17.90;92.00;;;;;;5080688;28;20050;-61
2021/08/21 07:12:10;;;;;;;24.85;20.08;;;18.10;91.80;;;;;;5098243;28;20048;-63
2021/08/21 07:14:36;;;;;;;28.17;20.73;;;18.40;91.50;;;;;;5099491;28;20035;-61
2021/08/21 07:17:02;;;;;;;26.60;20.90;;;18.60;91.30;;;;;;5098030;28;20107;-61
2021/08/21 07:19:28;;;;;;;29.35;22.80;;;18.80;91.00;;;;;;5079916;28;20483;-61
2021/08/21 07:21:54;;;;;;;27.55;21.08;;;18.90;90.60;;;;;;5099580;28;20036;-62
2021/08/21 07:24:21;;;;;;;28.45;22.48;;;19.10;90.20;;;;;;5098305;28;20028;-65
2021/08/21 07:26:48;;;;;;;24.15;20.70;;;19.20;89.80;;;;;;5098196;28;20035;-65
2021/08/21 07:29:14;;;;;;;26.10;20.15;;;19.40;89.20;;;;;;5097625;28;20050;-65
2021/08/21 07:31:40;;;;;;;26.38;20.75;;;19.30;88.90;;;;;;5097597;28;20036;-64
2021/08/21 07:34:05;;;;;;;27.55;21.17;;;19.40;88.50;;;;;;5089699;28;20032;-65
2021/08/21 07:36:31;;;;;;;26.92;19.98;;;19.40;88.30;;;;;;5099524;28;20024;-65
2021/08/21 07:38:57;;;;;;;26.10;20.15;;;19.50;87.90;;;;;;5080957;28;20039;-65
2021/08/21 07:41:23;;;;;;;23.63;19.90;;;19.40;88.00;;;;;;5099032;28;20430;-65
2021/08/21 07:43:49;;;;;;;22.23;18.00;;;19.40;88.00;;;;;;5098048;28;20032;-65
2021/08/21 07:46:15;;;;;;;19.30;16.08;;;19.40;88.20;;;;;;5097462;28;20040;-65
2021/08/21 07:48:41;;;;;;;19.73;17.38;;;19.50;87.90;;;;;;5098764;28;20044;-61
2021/08/21 07:51:07;;;;;;;35.58;30.40;;;19.70;87.60;;;;;;5098670;28;20040;-60
2021/08/21 07:53:33;;;;;;;38.83;28.25;;;19.90;87.00;;;;;;5099938;28;20043;-61
2021/08/21 07:55:59;;;;;;;20.08;17.95;;;20.20;86.40;;;;;;5100471;28;20062;-60
2021/08/21 07:58:25;;;;;;;20.50;17.38;;;20.40;85.10;;;;;;5099025;28;20143;-59
2021/08/21 08:00:51;;;;;;;23.77;18.30;;;20.30;84.80;;;;;;5098852;28;20072;-59
2021/08/21 08:03:17;;;;;;;20.98;16.33;;;20.30;84.90;;;;;;5097683;28;20118;-62
2021/08/21 08:05:43;;;;;;;22.70;16.00;;;20.40;85.60;;;;;;5098635;28;20518;-61
2021/08/21 08:08:09;;;;;;;21.05;18.25;;;20.50;85.40;;;;;;5099252;28;20063;-61
2021/08/21 08:10:36;;;;;;;24.05;17.77;;;20.50;84.90;;;;;;5099020;28;20036;-61
2021/08/21 08:13:08;;;;;;;22.20;16.77;;;20.50;84.90;;;;;;5100357;28;20046;-60
2021/08/21 08:15:34;;;;;;;24.27;19.20;;;20.40;85.30;;;;;;5078995;28;20032;-61
2021/08/21 08:18:03;;;;;;;21.73;18.30;;;20.30;85.60;;;;;;5086570;28;20107;-60
2021/08/21 08:20:29;;;;;;;21.67;16.38;;;20.20;86.00;;;;;;5079481;28;20089;-59
2021/08/21 08:22:57;;;;;;;20.60;15.82;;;20.30;86.30;;;;;;5098702;28;20040;-60
2021/08/21 08:25:23;;;;;;;23.25;19.52;;;20.60;85.80;;;;;;5097046;28;20119;-59
2021/08/21 08:27:50;;;;;;;25.50;21.15;;;20.80;85.00;;;;;;5098279;28;20100;-59
2021/08/21 08:30:17;;;;;;;25.05;21.38;;;21.00;84.40;;;;;;5099246;28;20054;-58
2021/08/21 08:32:43;;;;;;;23.33;16.33;;;20.90;84.40;;;;;;5097343;28;20044;-59
2021/08/21 08:35:09;;;;;;;24.20;21.20;;;21.00;84.70;;;;;;5099194;28;20547;-59
2021/08/21 08:37:36;;;;;;;23.83;20.33;;;21.20;84.10;;;;;;5098339;28;20028;-59
2021/08/21 08:40:02;;;;;;;19.13;16.67;;;21.20;83.80;;;;;;5080004;28;20047;-59
2021/08/21 08:42:28;;;;;;;21.48;19.17;;;21.20;83.60;;;;;;5097447;28;20032;-59
2021/08/21 08:44:54;;;;;;;88.90;69.70;;;21.40;83.70;;;;;;5078568;28;20046;-59
2021/08/21 08:47:20;;;;;;;46.90;36.63;;;21.50;83.10;;;;;;5098508;28;20108;-59
2021/08/21 08:49:47;;;;;;;24.67;21.50;;;21.60;82.80;;;;;;5097419;28;20073;-60
2021/08/21 08:52:15;;;;;;;25.50;21.33;;;21.50;82.60;;;;;;5099889;28;20043;-60
2021/08/21 08:54:41;;;;;;;25.13;20.70;;;21.50;82.80;;;;;;5096304;28;20036;-63
2021/08/21 08:57:07;;;;;;;21.25;18.30;;;21.50;83.00;;;;;;5097995;28;20111;-62
2021/08/21 08:59:34;;;;;;;24.67;18.23;;;21.70;82.80;;;;;;5097344;28;20081;-62
2021/08/21 09:02:00;;;;;;;25.58;16.25;;;22.00;82.10;;;;;;5097950;28;20058;-67
2021/08/21 09:04:26;;;;;;;27.50;22.77;;;22.40;81.80;;;;;;5080969;28;20035;-61
2021/08/21 09:06:53;;;;;;;25.67;20.70;;;22.80;80.80;;;;;;5097753;28;20384;-62
2021/08/21 09:09:24;;;;;;;26.17;20.02;;;23.00;79.80;;;;;;5099985;28;20035;-72
2021/08/21 09:11:53;;;;;;;24.42;21.92;;;23.00;79.30;;;;;;5077423;28;20036;-68
2021/08/21 09:14:21;;;;;;;20.33;15.77;;;23.00;79.00;;;;;;5096121;28;22293;-68
2021/08/21 09:16:48;;;;;;;23.08;15.27;;;22.80;80.30;;;;;;5095970;28;20127;-69
2021/08/21 09:19:25;;;;;;;23.13;19.95;;;22.90;81.00;;;;;;5098468;28;20046;-61
2021/08/21 09:22:06;;;;;;;23.52;19.27;;;23.00;80.00;;;;;;5097350;28;20036;-65
2021/08/21 09:24:37;;;;;;;20.45;18.05;;;23.00;79.50;;;;;;5096956;28;20036;-65
2021/08/21 09:27:23;;;;;;;20.63;15.10;;;23.00;79.40;;;;;;5095428;28;20036;-64
2021/08/21 09:30:17;;;;;;;16.70;14.02;;;23.00;80.20;;;;;;5097235;28;20035;-64
2021/08/21 09:32:44;;;;;;;24.38;19.60;;;23.10;80.70;;;;;;5094132;28;20063;-66
2021/08/21 09:35:13;;;;;;;24.30;20.60;;;22.90;79.40;;;;;;5098951;28;20040;-63
2021/08/21 09:37:50;;;;;;;24.30;18.83;;;22.70;79.30;;;;;;5099077;28;20502;-60
2021/08/21 09:40:31;;;;;;;26.00;21.15;;;22.60;80.50;;;;;;5095898;28;20035;-60
2021/08/21 09:42:57;;;;;;;22.92;19.58;;;22.70;80.80;;;;;;5077641;28;20122;-60
2021/08/21 09:45:25;;;;;;;38.33;28.88;;;22.80;81.00;;;;;;5098057;28;21715;-60
2021/08/21 09:48:09;;;;;;;41.72;31.63;;;22.90;80.70;;;;;;5078889;28;20595;-59
2021/08/21 09:50:37;;;;;;;29.45;24.83;;;23.00;80.40;;;;;;5098180;28;20039;-60
2021/08/21 09:53:09;;;;;;;26.35;22.98;;;23.00;80.20;;;;;;5098877;28;20039;-62
2021/08/21 09:55:35;;;;;;;24.83;21.55;;;23.10;79.70;;;;;;5096806;28;20443;-63
2021/08/21 09:58:04;;;;;;;26.35;22.58;;;23.10;79.60;;;;;;5096101;28;20059;-64
2021/08/21 10:00:32;;;;;;;24.23;20.90;;;23.10;79.50;;;;;;5096564;28;20131;-64
2021/08/21 10:02:59;;;;;;;24.67;22.00;;;23.20;79.50;;;;;;5097639;28;20105;-62
2021/08/21 10:05:26;;;;;;;27.13;22.13;;;23.30;79.20;;;;;;5078476;28;20040;-64
2021/08/21 10:08:04;;;;;;;24.73;21.02;;;23.30;79.10;;;;;;5096078;28;20035;-62
2021/08/21 10:10:37;;;;;;;24.15;20.98;;;23.30;79.10;;;;;;5096589;28;20058;-64
2021/08/21 10:13:10;;;;;;;24.50;21.17;;;23.20;79.60;;;;;;5097660;28;20082;-64
2021/08/21 10:15:37;;;;;;;;;;;23.20;79.00;;;;;;5096953;28;20467;-65
2021/08/21 10:18:05;;;;;;;27.58;23.60;;;23.20;79.60;;;;;;5095930;28;19924;-64
2021/08/21 10:20:30;;;;;;;30.30;22.70;;;23.10;79.90;;;;;;5096509;28;20040;-63
2021/08/21 10:22:56;;;;;;;27.27;23.73;;;23.10;79.80;;;;;;5096188;28;20081;-64
2021/08/21 10:25:26;;;;;;;23.77;21.27;;;23.10;79.40;;;;;;5077484;28;20146;-64
2021/08/21 10:27:59;;;;;;;26.80;22.77;;;23.20;79.20;;;;;;5100747;28;20043;-63
2021/08/21 10:30:40;;;;;;;25.27;22.67;;;23.40;79.10;;;;;;5100705;28;20039;-64
2021/08/21 10:33:07;;;;;;;27.10;24.00;;;23.60;78.70;;;;;;5100300;28;20051;-65
2021/08/21 10:35:49;;;;;;;29.55;24.25;;;23.70;77.90;;;;;;5099229;28;20402;-63
2021/08/21 10:38:30;;;;;;;27.50;24.45;;;23.90;77.50;;;;;;5100529;28;20036;-63
2021/08/21 10:41:01;;;;;;;30.05;23.92;;;23.90;77.90;;;;;;5100655;28;20519;-63
2021/08/21 10:43:48;;;;;;;29.92;24.40;;;23.90;77.20;;;;;;5101946;28;20118;-63
2021/08/21 10:46:30;;;;;;;29.27;24.48;;;23.90;77.00;;;;;;5101363;28;20043;-63
2021/08/21 10:48:57;;;;;;;30.20;27.00;;;23.80;77.00;;;;;;5098987;28;20042;-63
2021/08/21 10:51:40;;;;;;;28.92;25.58;;;23.60;77.30;;;;;;5099771;28;20107;-63
2021/08/21 10:54:24;;;;;;;30.92;25.75;;;23.50;77.50;;;;;;5100059;28;20039;-63
2021/08/21 10:56:51;;;;;;;29.95;26.70;;;23.30;78.00;;;;;;5100317;28;20426;-64
2021/08/21 10:59:43;;;;;;;31.90;27.65;;;23.10;79.10;;;;;;5098972;28;20043;-64
2021/08/21 11:02:31;;;;;;;34.90;27.63;;;23.00;79.20;;;;;;5098669;28;20091;-63
2021/08/21 11:04:58;;;;;;;27.30;24.50;;;22.80;79.80;;;;;;5098949;28;20392;-63
2021/08/21 11:07:33;;;;;;;32.80;28.38;;;22.70;80.60;;;;;;5099698;28;20087;-63
2021/08/21 11:10:18;;;;;;;28.58;25.58;;;22.60;80.20;;;;;;5099680;28;20062;-63
2021/08/21 11:12:50;;;;;;;26.65;23.85;;;22.60;80.20;;;;;;5099339;28;20050;-64
2021/08/21 11:15:26;;;;;;;32.88;27.02;;;22.50;80.80;;;;;;5100012;28;20036;-63
2021/08/21 11:17:52;;;;;;;27.15;23.83;;;22.50;81.00;;;;;;5100513;28;20593;-63
2021/08/21 11:20:34;;;;;;;31.23;27.17;;;22.40;81.10;;;;;;5098542;28;20028;-64
2021/08/21 11:23:06;;;;;;;30.80;26.17;;;22.40;81.20;;;;;;5099352;28;20037;-64
2021/08/21 11:25:41;;;;;;;29.40;25.60;;;22.30;81.60;;;;;;5099650;28;20174;-67
2021/08/21 11:28:08;;;;;;;37.78;31.83;;;22.10;81.80;;;;;;5098961;28;20379;-66
2021/08/21 11:30:36;;;;;;;34.42;28.95;;;21.70;82.50;;;;;;5098483;28;20542;-60
2021/08/21 11:33:07;;;;;;;29.63;24.52;;;21.70;83.60;;;;;;5099906;28;20042;-60
2021/08/21 11:35:45;;;;;;;32.40;26.50;;;21.80;83.60;;;;;;5100415;28;20035;-60
2021/08/21 11:38:13;;;;;;;28.35;25.30;;;22.00;83.20;;;;;;5098465;28;20488;-60
2021/08/21 11:40:47;;;;;;;26.92;24.00;;;21.90;83.90;;;;;;5099769;28;20060;-60
2021/08/21 11:43:20;;;;;;;28.50;25.23;;;21.80;83.00;;;;;;5098631;28;20122;-60
2021/08/21 11:45:45;;;;;;;29.52;24.35;;;21.80;83.20;;;;;;5098469;28;20396;-61
2021/08/21 11:48:12;;;;;;;24.65;22.10;;;21.80;83.30;;;;;;5097618;28;20031;-60
2021/08/21 11:50:45;;;;;;;32.53;25.00;;;21.80;82.60;;;;;;5099409;28;20039;-61
2021/08/21 11:53:20;;;;;;;24.25;21.00;;;21.90;82.50;;;;;;5099680;28;20164;-61
2021/08/21 11:55:46;;;;;;;25.02;21.98;;;21.90;82.20;;;;;;5097777;28;20028;-60
2021/08/21 11:58:13;;;;;;;29.23;23.23;;;21.90;82.30;;;;;;5097881;28;20035;-61
2021/08/21 12:00:44;;;;;;;26.60;23.52;;;21.90;81.80;;;;;;5091777;28;20039;-61
2021/08/21 12:03:13;;;;;;;29.25;24.75;;;21.70;82.40;;;;;;5098609;28;20488;-60
2021/08/21 12:05:44;;;;;;;25.88;23.27;;;21.80;82.90;;;;;;5099291;28;20036;-61
2021/08/21 12:08:19;;;;;;;26.92;24.13;;;21.80;82.40;;;;;;5099823;28;20040;-61
2021/08/21 12:10:45;;;;;;;23.05;19.92;;;21.80;83.10;;;;;;5099201;28;20036;-61
2021/08/21 12:13:11;;;;;;;25.90;21.77;;;21.70;82.70;;;;;;5099190;28;20043;-61
2021/08/21 12:15:37;;;;;;;23.50;19.88;;;21.80;82.20;;;;;;5079097;28;20037;-61
2021/08/21 12:18:07;;;;;;;24.15;21.25;;;21.80;81.70;;;;;;5098720;28;20051;-61
2021/08/21 12:20:36;;;;;;;20.58;18.40;;;21.90;81.30;;;;;;5098827;28;20040;-61
2021/08/21 12:23:02;;;;;;;20.42;18.38;;;22.10;80.20;;;;;;5098145;28;20038;-61
2021/08/21 12:25:52;;;;;;;20.83;18.60;;;22.20;79.90;;;;;;5096482;28;22329;-61
2021/08/21 12:28:21;;;;;;;19.15;17.13;;;22.30;79.80;;;;;;5098177;28;20032;-61
2021/08/21 12:31:07;;;;;;;18.02;16.23;;;22.40;78.70;;;;;;5099051;28;20043;-61
2021/08/21 12:33:38;;;;;;;16.23;14.15;;;22.50;79.10;;;;;;5097386;28;20047;-61